• Join FlightAware (Why Join?)
  • Login
  • US Flag 
07:51PM EST


 

Airport Tracker/Info


-or-


 

Live Flight TrackerFlight Track Log ✈ EJA396 ✈ 16-Dec-2013 ✈ KRDU - KBNA

Flight Track Log - Related Links

Times and Time Zones

All times are in EST time to prevent confusion due to time zone crossing. See the EJA396 flight status page for this flight to view local times or setup timezone preferences in your user account.

Time Position Orientation Groundspeed Altitude Reporting Facility
EST Latitude Longitude Course Direction KTS MPH feet Rate Location/Type
12:18PM 35.8606 -78.8033 258° West 171 197 1,400  Level Washington Center
12:20PM 35.8383 -78.9331 258° West 221 254 11,400 3,540 Climbing Washington Center
12:21PM 35.8375 -79.0331 269° West 254 292 12,000 1,320 Climbing Washington Center
12:22PM 35.8367 -79.1356 269° West 302 348 14,100 3,360 Climbing Washington Center
12:23PM 35.8347 -79.2847 269° West 303 349 20,800 3,420 Climbing Atlanta Center
12:24PM 35.8283 -79.3875 266° West 303 349 23,000 1,080 Climbing Atlanta Center
12:25PM 35.8178 -79.4931 263° West 308 354 23,000 1,200 Level Atlanta Center
12:26PM 35.8031 -79.6067 261° West 319 367 25,500 1,500 Climbing Atlanta Center
12:27PM 35.7861 -79.7178 259° West 319 367 26,000 600 Climbing Atlanta Center
12:28PM 35.7653 -79.8364 258° West 339 390 26,700 1,860 Climbing Atlanta Center
12:29PM 35.7439 -79.9503 257° West 345 397 29,800 2,640 Climbing Atlanta Center
12:30PM 35.7247 -80.0586 258° West 338 389 32,000 1,620 Climbing Atlanta Center
12:31PM 35.7069 -80.1617 258° West 338 389 33,100 960 Climbing Atlanta Center
12:32PM 35.6878 -80.2778 259° West 343 395 34,000 420 Climbing Atlanta Center
12:33PM 35.6683 -80.3911 258° West 343 395 34,000  Level Atlanta Center
12:34PM 35.6567 -80.4989 262° West 338 389 34,000  Level Atlanta Center
12:35PM 35.6639 -80.6058 275° West 326 375 34,000  Level Atlanta Center
12:36PM 35.6733 -80.7156 276° West 320 368 34,000  Level Atlanta Center
12:37PM 35.6825 -80.8250 276° West 325 374 34,000  Level Atlanta Center
12:38PM 35.6917 -80.9372 276° West 330 380 34,000  Level Atlanta Center
12:39PM 35.7028 -81.0467 277° West 330 380 34,000  Level Atlanta Center
12:40PM 35.7117 -81.1639 275° West 330 380 34,000  Level Atlanta Center
12:41PM 35.7206 -81.2761 276° West 335 386 34,000  Level Atlanta Center
12:42PM 35.7336 -81.3908 278° West 341 392 34,000  Level Atlanta Center
12:43PM 35.7400 -81.5058 274° West 341 392 34,000  Level Atlanta Center
12:44PM 35.7508 -81.6181 277° West 341 392 34,000  Level Atlanta Center
12:45PM 35.7569 -81.7331 274° West 341 392 34,000  Level Atlanta Center
12:46PM 35.7694 -81.8453 278° West 341 392 34,000  Level Atlanta Center
12:47PM 35.7758 -81.9631 274° West 347 399 34,000  Level Atlanta Center
12:48PM 35.7861 -82.0778 276° West 347 399 34,000  Level Atlanta Center
12:49PM 35.7942 -82.1903 275° West 347 399 34,000 -180 Level Atlanta Center
12:50PM 35.8000 -82.3183 273° West 347 399 33,700 -660 Descending Atlanta Center
12:51PM 35.8100 -82.4383 276° West 353 406 32,700 -900 Descending Atlanta Center
12:52PM 35.8178 -82.5586 275° West 358 412 32,000 -360 Descending Atlanta Center
12:53PM 35.8233 -82.6764 273° West 347 399 32,000  Level Atlanta Center
12:54PM 35.8328 -82.7836 276° West 333 383 32,000  Level Atlanta Center
12:55PM 35.8400 -82.8886 275° West 323 372 32,000  Level Atlanta Center
12:56PM 35.8472 -82.9806 276° West 310 357 32,000 -420 Level Atlanta Center
12:57PM 35.8544 -83.0856 275° West 310 357 31,200 -1,020 Descending Atlanta Center
12:58PM 35.8592 -83.1958 273° West 310 357 30,000 -600 Descending Atlanta Center
12:59PM 35.8683 -83.3186 275° West 318 366 30,000 -60 Level Atlanta Center
01:00PM 35.8753 -83.4236 275° West 318 366 29,900 -600 Descending Atlanta Center
01:01PM 35.8819 -83.5314 274° West 318 366 28,900 -960 Descending Atlanta Center
01:02PM 35.8886 -83.6389 274° West 318 366 28,000 -480 Descending Atlanta Center
01:03PM 35.8953 -83.7439 275° West 313 360 28,000 -600 Level Atlanta Center
01:04PM 35.9017 -83.8492 274° West 313 360 26,900 -1,560 Descending Atlanta Center
01:05PM 35.8956 -83.9567 266° West 313 360 24,900 -1,500 Descending Atlanta Center
01:06PM 35.8769 -84.0619 258° West 318 366 24,000 -480 Descending Atlanta Center
01:07PM 35.8600 -84.1669 259° West 318 366 24,000 -300 Level Atlanta Center
01:08PM 35.8411 -84.2819 259° West 324 373 23,400 -540 Descending Atlanta Center
01:09PM 35.8222 -84.3897 258° West 329 379 23,000 -240 Descending Atlanta Center
01:10PM 35.8050 -84.5022 259° West 334 384 23,000  Level Atlanta Center
01:11PM 35.7858 -84.6097 258° West 334 384 23,000  Level Atlanta Center
01:12PM 35.7664 -84.7144 257° West 328 377 23,000  Level Atlanta Center
01:13PM 35.7492 -84.8217 259° West 328 377 23,000 -180 Level Atlanta Center
01:15PM 35.7147 -85.0250 258° West 333 383 22,600 -720 Descending Memphis Center
01:16PM 35.6967 -85.1281 258° West 313 360 20,900 -1,260 Descending Memphis Center
01:17PM 35.6783 -85.2347 258° West 316 364 20,000 -480 Descending Memphis Center
01:18PM 35.6586 -85.3622 259° West 317 365 20,000  Level Memphis Center
01:19PM 35.6611 -85.4739 272° West 325 374 20,000  Level Memphis Center
01:21PM 35.6619 -85.5886 271° West 333 383 20,000  Level Memphis Center
01:22PM 35.6636 -85.7025 271° West 334 384 20,000  Level Memphis Center
01:23PM 35.6644 -85.8158 271° West 333 383 20,000 -660 Level Memphis Center
01:24PM 35.6647 -85.9339 270° West 320 368 18,700 -1,440 Descending Memphis Center
01:25PM 35.6656 -86.0394 271° West 310 357 17,100 -1,500 Descending Memphis Center
01:26PM 35.7094 -86.1206 304° West 282 325 15,600 -1,500 Descending Memphis Center
01:27PM 35.7625 -86.1906 313° West 279 321 14,100 -1,680 Descending Memphis Center
01:28PM 35.8294 -86.2808 312° West 297 342 12,200 -1,740 Descending Memphis Center
01:29PM 35.8867 -86.3556 313° West 298 343 10,600 -1,440 Descending Memphis Center
01:30PM 35.9331 -86.4156 314° West 250 288 9,300 -1,260 Descending Memphis Center
01:31PM 35.9792 -86.4758 313° West 240 276 8,100 -1,260 Descending Memphis Center
01:32PM 36.0242 -86.5358 313° West 237 273 6,800 -1,440 Descending Memphis Center
01:33PM 36.0825 -86.5681 336° Northwest 253 291 5,200 -1,020 Descending Memphis Center
01:34PM 36.1569 -86.5431 15° North 272 313 4,700 -1,380 Descending Memphis Center
01:35PM 36.2308 -86.5456 358° North 256 295 2,400 -1,320 Descending Memphis Center
01:36PM 36.2378 -86.6036 278° West 195 224 2,000 -300 Descending Memphis Center
01:37PM 36.1969 -86.6350 212° Southwest 179 206 1,900 -360 Descending Memphis Center
01:38PM 36.1592 -86.6494 197° South 156 180 1,300 -540 Descending Memphis Center
01:39PM 36.1339 -86.6578 195° South 125 144 800 -540 Descending Memphis Center
01:41PM 36.1167 -86.6667 260° West  Level FlightAware Approximate